Main page
METAR-TAF:

METAR-TAF

Airports :

Kuwait International Airport

Kuwait City, Kuwait

latitude: 29-13N, longitude: 047-59E, elevation: 55 m

Current weather observation

The report was made 55 minutes ago, at 23:00 UTC
Calm wind
Temperature 17°C
Humidity 48%
Pressure 1014 hPa
Visibility 10 km or more
no clouds below 1500 m and no cumulonimbus

METAR: OKBK 302300Z 00000KT CAVOK 17/06 Q1014 NOSIG

Time: 02:55 (23:55 UTC)

Forecast

The report was made 1 hour and 10 minutes ago, at 22:45 UTC
Forecast valid from 31 at 00 UTC to 01 at 06 UTC
Wind 3 kt from variable directions
Visibility: 7000 m

TAF: OKBK 302245Z 3100/0106 VRB03KT 7000 NSC

Weather observations and forecasts of more than 4000 airports (METAR and TAF reports).

The available stations are represented by yellow and red dots on the map.

Hover mouse over dot to see the name of the station.

Then click to see weather observations and forecasts.

To change the map : click on the green buttons with a black cross to zoom in, on the green button with a dash to zoom out, or on the green arrows for adjacent maps.


METAR-TAF: